createdAt,value
2023-04-12T00:00:37.159Z,2.00
2023-04-12T00:03:07.892Z,2.83
2023-04-12T00:05:38.154Z,2.80
2023-04-12T00:08:06.818Z,2.38
2023-04-12T00:10:34.493Z,2.30
2023-04-12T00:13:02.241Z,2.55
2023-04-12T00:15:30.049Z,2.22
2023-04-12T00:17:57.951Z,2.08
2023-04-12T00:20:26.006Z,2.92
2023-04-12T00:22:57.604Z,2.22
2023-04-12T00:25:25.443Z,2.33
2023-04-12T00:27:53.160Z,1.73
2023-04-12T00:30:21.069Z,2.25
2023-04-12T00:32:48.746Z,2.30
2023-04-12T00:35:16.596Z,2.13
2023-04-12T00:37:44.281Z,2.67
2023-04-12T00:40:14.247Z,2.40
2023-04-12T00:42:41.888Z,2.10
2023-04-12T00:45:10.511Z,2.58
2023-04-12T00:47:38.880Z,2.40
2023-04-12T00:50:09.394Z,2.97
2023-04-12T00:52:37.594Z,2.10
2023-04-12T00:55:07.224Z,2.42
2023-04-12T00:57:37.852Z,2.67
2023-04-12T01:00:08.419Z,2.20
2023-04-12T01:02:39.476Z,2.22
2023-04-12T01:05:14.555Z,2.63
2023-04-12T01:07:54.221Z,2.10
2023-04-12T01:10:34.552Z,2.65
2023-04-12T01:13:15.229Z,2.33
2023-04-12T01:15:50.218Z,2.38
2023-04-12T01:18:23.560Z,2.63
2023-04-12T01:20:57.659Z,2.30
2023-04-12T01:23:44.774Z,2.40
2023-04-12T01:26:28.282Z,2.20
2023-04-12T01:28:58.557Z,2.10
2023-04-12T01:31:28.673Z,1.95
2023-04-12T01:33:59.436Z,2.20
2023-04-12T01:36:29.027Z,1.88
2023-04-12T01:38:57.429Z,2.00
2023-04-12T01:41:25.588Z,2.20
2023-04-12T01:43:53.263Z,2.10
2023-04-12T01:46:24.820Z,2.03
2023-04-12T01:48:54.365Z,2.00
2023-04-12T01:51:35.844Z,2.22
2023-04-12T01:54:11.208Z,2.88
2023-04-12T01:56:42.974Z,2.55
2023-04-12T01:59:15.538Z,2.22
2023-04-12T02:01:45.321Z,2.20
2023-04-12T02:04:14.234Z,2.47
2023-04-12T02:06:43.570Z,2.17
2023-04-12T02:09:11.376Z,2.10
2023-04-12T02:11:39.060Z,2.03
2023-04-12T02:14:07.662Z,2.67
2023-04-12T02:16:35.869Z,2.58
2023-04-12T02:19:08.921Z,2.25
2023-04-12T02:21:42.049Z,2.13
2023-04-12T02:24:10.356Z,2.65
2023-04-12T02:26:38.367Z,2.00
2023-04-12T02:29:07.740Z,2.78
2023-04-12T02:31:35.534Z,2.65
2023-04-12T02:34:03.446Z,2.50
2023-04-12T02:36:32.678Z,2.10
2023-04-12T02:39:00.841Z,3.30
2023-04-12T02:41:28.550Z,2.58
2023-04-12T02:43:56.439Z,2.30
2023-04-12T02:46:27.237Z,2.45
2023-04-12T02:48:55.255Z,2.90
2023-04-12T02:51:22.954Z,2.55
2023-04-12T02:53:52.085Z,2.83
2023-04-12T02:56:19.845Z,2.85
2023-04-12T02:58:47.512Z,3.00
2023-04-12T03:01:15.301Z,2.53
2023-04-12T03:03:43.024Z,3.50
2023-04-12T03:06:10.845Z,3.20
2023-04-12T03:08:39.149Z,3.15
2023-04-12T03:11:08.459Z,4.32
2023-04-12T03:13:36.194Z,2.92
2023-04-12T03:16:21.784Z,3.05
2023-04-12T03:18:50.136Z,3.60
2023-04-12T03:21:17.880Z,4.95
2023-04-12T03:23:45.751Z,3.88
2023-04-12T03:26:14.958Z,3.80
2023-04-12T03:28:42.931Z,3.15
2023-04-12T03:31:12.559Z,3.60
2023-04-12T03:33:40.661Z,3.45
2023-04-12T03:36:09.921Z,3.33
2023-04-12T03:38:37.741Z,3.60
2023-04-12T03:41:05.774Z,3.45
2023-04-12T03:43:36.201Z,3.63
2023-04-12T03:46:04.565Z,3.25
2023-04-12T03:48:32.517Z,3.13
2023-04-12T03:51:00.724Z,2.83
2023-04-12T03:53:28.393Z,3.25
2023-04-12T03:55:56.543Z,3.33
2023-04-12T03:58:24.240Z,3.25
2023-04-12T04:00:53.305Z,3.53
2023-04-12T04:03:27.228Z,3.30
2023-04-12T04:05:55.192Z,4.30
2023-04-12T04:08:22.904Z,4.13
2023-04-12T04:10:50.742Z,3.90
2023-04-12T04:13:18.522Z,3.80
2023-04-12T04:15:46.297Z,3.45
2023-04-12T04:18:15.403Z,4.22
2023-04-12T04:20:43.092Z,4.45
2023-04-12T04:23:11.178Z,4.47
2023-04-12T04:25:39.373Z,4.10
2023-04-12T04:28:07.830Z,4.28
2023-04-12T04:30:38.696Z,4.43
2023-04-12T04:33:07.109Z,4.60
2023-04-12T04:35:40.039Z,4.82
2023-04-12T04:38:07.750Z,4.85
2023-04-12T04:40:38.378Z,4.80
2023-04-12T04:43:08.237Z,4.38
2023-04-12T04:45:36.426Z,3.60
2023-04-12T04:48:04.254Z,4.60
2023-04-12T04:50:32.003Z,4.45
2023-04-12T04:53:01.160Z,4.22
2023-04-12T04:55:30.126Z,3.80
2023-04-12T04:57:58.834Z,3.90
2023-04-12T05:00:26.555Z,3.80
2023-04-12T05:02:54.342Z,4.43
2023-04-12T05:05:23.337Z,3.90
2023-04-12T05:07:51.221Z,4.07
2023-04-12T05:10:20.403Z,3.78
2023-04-12T05:12:48.262Z,3.97
2023-04-12T05:18:00.054Z,4.55
2023-04-12T05:20:44.077Z,3.50
2023-04-12T05:26:20.065Z,3.83
2023-04-12T05:28:47.711Z,3.50
2023-04-12T05:31:15.921Z,4.13
2023-04-12T05:33:44.700Z,2.95
2023-04-12T05:36:12.973Z,3.67
2023-04-12T05:38:40.676Z,3.72
2023-04-12T05:41:08.967Z,3.40
2023-04-12T05:43:39.940Z,3.90
2023-04-12T05:46:10.078Z,4.22
2023-04-12T05:48:38.167Z,3.80
2023-04-12T05:51:06.754Z,3.58
2023-04-12T05:53:34.498Z,3.90
2023-04-12T05:56:02.257Z,3.40
2023-04-12T05:58:30.100Z,3.35
2023-04-12T06:00:59.317Z,4.00
2023-04-12T06:03:30.378Z,3.80
2023-04-12T06:05:58.422Z,4.40
2023-04-12T06:08:29.420Z,3.90
2023-04-12T06:10:57.354Z,4.00
2023-04-12T06:13:25.321Z,3.75
2023-04-12T06:15:53.020Z,3.42
2023-04-12T06:18:22.268Z,3.25
2023-04-12T06:20:49.953Z,3.85
2023-04-12T06:23:19.228Z,3.63
2023-04-12T06:25:48.076Z,3.33
2023-04-12T06:28:16.134Z,2.55
2023-04-12T06:30:43.957Z,2.90
2023-04-12T06:33:11.759Z,3.45
2023-04-12T06:35:40.890Z,2.80
2023-04-12T06:38:08.599Z,3.00
2023-04-12T06:40:36.357Z,3.08
2023-04-12T06:43:04.050Z,3.75
2023-04-12T06:45:32.024Z,3.20
2023-04-12T06:47:59.756Z,2.92
2023-04-12T06:50:27.583Z,3.50
2023-04-12T06:52:56.673Z,3.20
2023-04-12T06:55:24.576Z,2.60
2023-04-12T06:57:52.296Z,3.58
2023-04-12T07:00:20.249Z,3.08
2023-04-12T07:02:48.173Z,3.63
2023-04-12T07:05:16.352Z,3.00
2023-04-12T07:07:44.074Z,3.10
2023-04-12T07:10:13.241Z,3.05
2023-04-12T07:12:41.924Z,2.90
2023-04-12T07:15:10.278Z,2.42
2023-04-12T07:17:38.075Z,2.92
2023-04-12T07:20:07.022Z,3.90
2023-04-12T07:22:34.734Z,3.17
2023-04-12T07:25:02.479Z,2.70
2023-04-12T07:27:31.770Z,2.38
2023-04-12T07:29:59.742Z,2.78
2023-04-12T07:32:28.384Z,2.60
2023-04-12T07:34:56.190Z,2.50
2023-04-12T07:37:23.887Z,1.80
2023-04-12T07:39:51.734Z,1.95
2023-04-12T07:42:19.525Z,2.05
2023-04-12T07:44:48.680Z,2.47
2023-04-12T07:47:16.493Z,1.50
2023-04-12T07:49:44.271Z,2.20
2023-04-12T07:52:12.177Z,1.70
2023-04-12T07:54:40.072Z,1.50
2023-04-12T07:57:08.896Z,1.42
2023-04-12T07:59:36.878Z,1.88
2023-04-12T08:02:06.497Z,1.40
2023-04-12T08:04:34.428Z,1.60
2023-04-12T08:07:02.321Z,1.67
2023-04-12T08:09:30.157Z,1.65
2023-04-12T08:11:58.251Z,1.30
2023-04-12T08:14:26.316Z,2.30
2023-04-12T08:16:54.025Z,1.73
2023-04-12T08:19:23.246Z,1.88
2023-04-12T08:21:51.282Z,1.40
2023-04-12T08:24:19.919Z,1.63
2023-04-12T08:26:47.798Z,1.30
2023-04-12T08:29:15.577Z,1.90
2023-04-12T08:31:43.538Z,1.63
2023-04-12T08:34:11.314Z,1.40
2023-04-12T08:36:40.370Z,1.73
2023-04-12T08:39:08.038Z,1.80
2023-04-12T08:41:37.702Z,1.60
2023-04-12T08:44:06.840Z,1.88
2023-04-12T08:46:37.064Z,1.80
2023-04-12T08:49:04.875Z,1.48
2023-04-12T08:51:36.289Z,1.70
2023-04-12T08:54:06.127Z,1.80
2023-04-12T08:56:33.985Z,1.90
2023-04-12T08:59:02.461Z,1.80
2023-04-12T09:01:30.618Z,1.75
2023-04-12T09:03:59.151Z,1.33
2023-04-12T09:06:27.504Z,1.58
2023-04-12T09:08:56.929Z,2.03
2023-04-12T09:11:28.134Z,1.33
2023-04-12T09:13:57.656Z,1.60
2023-04-12T09:16:36.394Z,1.50
2023-04-12T09:19:04.174Z,1.85
2023-04-12T09:21:32.886Z,1.80
2023-04-12T09:24:05.897Z,1.90
2023-04-12T09:26:35.059Z,1.60
2023-04-12T09:29:03.119Z,1.80
2023-04-12T09:31:31.105Z,1.67
2023-04-12T09:34:08.363Z,2.03
2023-04-12T09:36:39.919Z,2.03
2023-04-12T09:39:08.885Z,1.97
2023-04-12T09:41:38.001Z,2.53
2023-04-12T09:44:05.790Z,1.80
2023-04-12T09:46:34.534Z,2.60
2023-04-12T09:49:03.419Z,2.40
2023-04-12T09:51:32.942Z,2.42
2023-04-12T09:54:02.458Z,1.70
2023-04-12T09:56:32.218Z,1.83
2023-04-12T09:59:04.175Z,1.70
2023-04-12T10:01:36.229Z,2.20
2023-04-12T10:04:07.324Z,2.43
2023-04-12T10:06:35.918Z,2.20
2023-04-12T10:09:05.654Z,2.07
2023-04-12T10:11:34.604Z,2.03
2023-04-12T10:14:04.597Z,2.27
2023-04-12T10:16:35.350Z,1.80
2023-04-12T10:19:04.439Z,2.03
2023-04-12T10:21:32.412Z,1.40
2023-04-12T10:24:00.589Z,1.90
2023-04-12T10:26:28.735Z,1.93
2023-04-12T10:29:25.392Z,1.73
2023-04-12T10:31:53.372Z,2.13
2023-04-12T10:34:28.024Z,1.90
2023-04-12T10:36:56.938Z,2.10
2023-04-12T10:39:42.265Z,1.57
2023-04-12T10:42:25.053Z,1.70
2023-04-12T10:44:58.720Z,1.20
2023-04-12T10:48:01.894Z,1.80
2023-04-12T10:50:31.368Z,1.30
2023-04-12T10:53:27.298Z,1.60
2023-04-12T10:55:55.155Z,1.53
2023-04-12T10:58:58.761Z,1.10
2023-04-12T11:01:29.508Z,4.57
2023-04-12T11:04:18.595Z,1.70
2023-04-12T11:06:58.506Z,1.43
2023-04-12T11:09:29.432Z,1.83
2023-04-12T11:11:59.487Z,1.50
2023-04-12T11:14:31.242Z,1.27
2023-04-12T11:17:26.160Z,1.20
2023-04-12T11:20:01.120Z,1.40
2023-04-12T11:22:30.902Z,1.63
2023-04-12T11:25:00.324Z,1.00
2023-04-12T11:27:30.367Z,1.10
2023-04-12T11:30:00.536Z,1.23
2023-04-12T11:32:31.934Z,1.20
2023-04-12T11:35:00.065Z,1.40
2023-04-12T11:37:28.000Z,1.20
2023-04-12T11:39:58.951Z,0.93
2023-04-12T11:42:29.157Z,1.30
2023-04-12T11:45:02.491Z,1.00
2023-04-12T11:47:36.097Z,1.00
2023-04-12T11:50:03.898Z,0.90
2023-04-12T11:52:33.481Z,0.93
2023-04-12T11:55:15.806Z,1.10
2023-04-12T11:57:43.665Z,1.50
2023-04-12T12:00:12.454Z,1.10
2023-04-12T12:02:49.274Z,1.30
2023-04-12T12:05:29.888Z,1.23
2023-04-12T12:10:41.984Z,1.10
2023-04-12T12:13:15.106Z,1.20
2023-04-12T12:15:46.158Z,1.00
2023-04-12T12:18:15.365Z,0.80
2023-04-12T12:20:43.919Z,1.00
2023-04-12T12:23:11.583Z,1.20
2023-04-12T12:25:39.330Z,1.00
2023-04-12T12:28:13.459Z,1.13
2023-04-12T12:30:41.351Z,0.80
2023-04-12T12:33:09.735Z,1.30
2023-04-12T12:35:38.812Z,0.80
2023-04-12T12:38:08.648Z,0.67
2023-04-12T12:40:36.455Z,0.73
2023-04-12T12:43:06.822Z,0.80
2023-04-12T12:45:35.681Z,0.80
2023-04-12T12:48:05.379Z,0.73
2023-04-12T12:50:34.381Z,0.90
2023-04-12T12:53:06.036Z,1.00
2023-04-12T12:55:33.901Z,0.90
2023-04-12T12:58:08.100Z,0.80
2023-04-12T13:00:36.576Z,0.90
2023-04-12T13:03:05.073Z,0.73
2023-04-12T13:05:33.051Z,1.00
2023-04-12T13:08:00.850Z,1.10
2023-04-12T13:10:30.005Z,0.90
2023-04-12T13:12:58.711Z,1.13
2023-04-12T13:15:27.097Z,0.97
2023-04-12T13:17:55.327Z,1.10
2023-04-12T13:20:23.601Z,1.17
2023-04-12T13:22:51.512Z,1.20
2023-04-12T13:25:20.466Z,0.80
2023-04-12T13:27:50.610Z,1.10
2023-04-12T13:30:19.002Z,1.07
2023-04-12T13:32:47.152Z,0.90
2023-04-12T13:35:15.124Z,0.80
2023-04-12T13:37:42.935Z,1.17
2023-04-12T13:40:11.352Z,0.90
2023-04-12T13:42:39.009Z,1.03
2023-04-12T13:45:11.252Z,0.90
2023-04-12T13:47:39.553Z,0.90
2023-04-12T13:50:08.519Z,0.90
2023-04-12T13:52:36.289Z,0.80
2023-04-12T13:55:07.975Z,0.80
2023-04-12T13:57:35.910Z,1.10
2023-04-12T14:00:03.853Z,0.67
2023-04-12T14:02:33.326Z,0.87
2023-04-12T14:05:01.400Z,0.80
2023-04-12T14:07:29.463Z,0.73
2023-04-12T14:09:57.849Z,0.90
2023-04-12T14:12:26.258Z,0.80
2023-04-12T14:14:54.244Z,0.73
2023-04-12T14:17:21.977Z,1.00
2023-04-12T14:19:51.236Z,1.00
2023-04-12T14:22:18.971Z,0.77
2023-04-12T14:24:46.708Z,1.00
2023-04-12T14:27:17.909Z,0.80
2023-04-12T14:29:46.039Z,0.80
2023-04-12T14:32:13.742Z,0.90
2023-04-12T14:34:43.342Z,1.40
2023-04-12T14:37:12.592Z,1.00
2023-04-12T14:39:40.311Z,0.80
2023-04-12T14:42:08.089Z,0.90
2023-04-12T14:44:35.839Z,0.73
2023-04-12T14:47:03.551Z,0.73
2023-04-12T14:49:33.042Z,1.10
2023-04-12T14:52:01.519Z,0.60
2023-04-12T14:54:30.989Z,0.97
2023-04-12T14:56:58.747Z,0.80
2023-04-12T14:59:28.135Z,1.03
2023-04-12T15:01:56.034Z,0.83
2023-04-12T15:04:24.524Z,1.10
2023-04-12T15:06:52.368Z,0.87
2023-04-12T15:09:21.248Z,0.90
2023-04-12T15:11:55.056Z,0.80
2023-04-12T15:14:24.131Z,0.83
2023-04-12T15:16:51.943Z,0.80
2023-04-12T15:19:23.263Z,1.30
2023-04-12T15:21:52.277Z,1.00
2023-04-12T15:24:20.851Z,0.67
2023-04-12T15:26:50.694Z,0.90
2023-04-12T15:29:22.149Z,0.80
2023-04-12T15:31:50.398Z,0.50
2023-04-12T15:34:18.525Z,0.63
2023-04-12T15:36:46.349Z,0.83
2023-04-12T15:39:15.014Z,0.60
2023-04-12T15:41:43.414Z,0.60
2023-04-12T15:44:13.461Z,0.80
2023-04-12T15:46:43.609Z,0.77
2023-04-12T15:49:12.142Z,0.53
2023-04-12T15:51:39.943Z,0.87
2023-04-12T15:54:07.691Z,0.70
2023-04-12T15:56:37.861Z,0.80
2023-04-12T15:59:05.856Z,0.70
2023-04-12T16:01:35.749Z,0.73
2023-04-12T16:04:05.427Z,0.70
2023-04-12T16:06:35.541Z,0.60
2023-04-12T16:09:04.952Z,0.70
2023-04-12T16:11:33.989Z,0.60
2023-04-12T16:14:01.968Z,0.70
2023-04-12T16:16:29.775Z,0.63
2023-04-12T16:19:00.151Z,0.60
2023-04-12T16:21:30.289Z,0.70
2023-04-12T16:23:58.627Z,0.60
2023-04-12T16:26:27.247Z,0.80
2023-04-12T16:41:47.325Z,0.73
2023-04-12T16:44:18.648Z,0.70
2023-04-12T16:46:47.733Z,1.10
2023-04-12T16:49:17.569Z,0.80
2023-04-12T16:51:47.013Z,0.70
2023-04-12T16:54:16.677Z,0.80
2023-04-12T16:56:47.418Z,0.63
2023-04-12T17:04:37.232Z,0.70
2023-04-12T17:07:06.664Z,0.80
2023-04-12T17:09:34.916Z,0.60
2023-04-12T17:12:02.851Z,0.90
2023-04-12T17:14:34.291Z,0.60
2023-04-12T17:17:04.359Z,0.83
2023-04-12T17:19:33.601Z,0.80
2023-04-12T17:22:01.661Z,1.00
2023-04-12T17:24:29.502Z,0.90
2023-04-12T17:26:57.874Z,1.20
2023-04-12T17:29:31.834Z,0.77
2023-04-12T17:32:04.346Z,1.00
2023-04-12T17:34:38.304Z,0.95
2023-04-12T17:37:08.319Z,0.70
2023-04-12T17:39:43.930Z,2.10
2023-04-12T17:42:12.945Z,0.90
2023-04-12T17:44:43.983Z,0.85
2023-04-12T17:47:15.422Z,0.90
2023-04-12T17:49:44.827Z,1.38
2023-04-12T17:52:17.244Z,5.97
2023-04-12T17:54:45.618Z,1.93
2023-04-12T17:57:40.228Z,5.90
2023-04-12T18:00:11.822Z,4.97
2023-04-12T18:02:41.406Z,1.10
2023-04-12T18:05:09.732Z,2.00
2023-04-12T18:07:39.740Z,1.60
2023-04-12T18:10:08.873Z,1.10
2023-04-12T18:12:38.563Z,1.27
2023-04-12T18:15:10.296Z,0.82
2023-04-12T18:17:39.654Z,1.05
2023-04-12T18:20:11.363Z,0.90
2023-04-12T18:22:39.507Z,1.30
2023-04-12T18:25:11.782Z,0.63
2023-04-12T18:27:39.659Z,1.10
2023-04-12T18:30:11.946Z,0.93
2023-04-12T18:32:39.707Z,1.10
2023-04-12T18:35:09.780Z,1.00
2023-04-12T18:37:38.135Z,1.10
2023-04-12T18:40:08.339Z,0.80
2023-04-12T18:42:36.137Z,0.90
2023-04-12T18:45:04.918Z,0.80
2023-04-12T18:47:32.621Z,1.15
2023-04-12T18:50:00.357Z,1.10
2023-04-12T18:52:29.433Z,0.90
2023-04-12T18:54:57.129Z,0.80
2023-04-12T18:57:24.946Z,1.05
2023-04-12T18:59:52.907Z,0.95
2023-04-12T19:02:20.890Z,0.82
2023-04-12T19:04:48.770Z,1.10
2023-04-12T19:07:16.488Z,1.00
2023-04-12T19:09:46.933Z,1.00
2023-04-12T19:12:14.676Z,1.08
2023-04-12T19:14:42.455Z,0.85
2023-04-12T19:17:10.252Z,0.93
2023-04-12T19:19:37.951Z,0.93
2023-04-12T19:22:05.666Z,0.82
2023-04-12T19:24:33.865Z,0.90
2023-04-12T19:27:03.579Z,0.82
2023-04-12T19:29:31.309Z,0.80
2023-04-12T19:32:00.699Z,0.80
2023-04-12T19:34:28.471Z,1.10
2023-04-12T19:36:56.210Z,1.10
2023-04-12T19:39:26.778Z,0.82
2023-04-12T19:41:54.518Z,1.08
2023-04-12T19:44:24.265Z,1.05
2023-04-12T19:46:52.838Z,1.00
2023-04-12T19:49:22.031Z,1.00
2023-04-12T19:51:50.009Z,0.80
2023-04-12T19:54:18.870Z,1.15
2023-04-12T19:56:47.045Z,1.38
2023-04-12T19:59:15.481Z,0.90
2023-04-12T20:01:48.802Z,1.20
2023-04-12T20:04:17.213Z,1.20
2023-04-12T20:06:45.511Z,0.75
2023-04-12T20:09:14.051Z,0.88
2023-04-12T20:11:42.268Z,0.90
2023-04-12T20:14:12.641Z,1.17
2023-04-12T20:16:42.605Z,0.90
2023-04-12T20:19:12.504Z,1.00
2023-04-12T20:21:40.523Z,1.00
2023-04-12T20:24:09.128Z,1.10
2023-04-12T20:26:37.430Z,1.08
2023-04-12T20:29:05.496Z,0.93
2023-04-12T20:31:33.736Z,1.05
2023-04-12T20:34:01.539Z,1.10
2023-04-12T20:36:31.417Z,0.85
2023-04-12T20:39:01.460Z,0.85
2023-04-12T20:41:29.301Z,0.90
2023-04-12T20:43:57.698Z,0.90
2023-04-12T20:46:26.761Z,1.10
2023-04-12T20:51:23.622Z,0.98
2023-04-12T20:53:52.738Z,0.60
2023-04-12T20:56:20.503Z,0.82
2023-04-12T20:58:49.807Z,0.60
2023-04-12T21:01:18.702Z,0.47
2023-04-12T21:03:46.765Z,0.55
2023-04-12T21:06:14.650Z,0.63
2023-04-12T21:08:43.470Z,0.50
2023-04-12T21:11:12.681Z,0.50
2023-04-12T21:13:40.649Z,0.60
2023-04-12T21:16:09.752Z,0.50
2023-04-12T21:18:37.485Z,0.70
2023-04-12T21:21:06.037Z,0.50
2023-04-12T21:23:34.245Z,0.50
2023-04-12T21:26:04.138Z,0.70
2023-04-12T21:28:33.263Z,0.52
2023-04-12T21:31:01.070Z,0.50
2023-04-12T21:33:28.717Z,0.60
2023-04-12T21:35:56.988Z,0.60
2023-04-12T21:38:25.183Z,0.60
2023-04-12T21:40:57.186Z,0.60
2023-04-12T21:43:24.950Z,0.40
2023-04-12T21:45:54.677Z,0.45
2023-04-12T21:48:22.427Z,0.60
2023-04-12T21:50:50.159Z,0.60
2023-04-12T21:53:17.917Z,0.93
2023-04-12T21:55:45.618Z,0.60
2023-04-12T21:58:13.294Z,0.63
2023-04-12T22:00:41.705Z,0.50
2023-04-12T22:03:11.282Z,0.70
2023-04-12T22:05:39.892Z,0.50
2023-04-12T22:08:08.306Z,0.50
2023-04-12T22:10:36.154Z,0.68
2023-04-12T22:13:04.193Z,0.50
2023-04-12T22:15:32.135Z,0.50
2023-04-12T22:18:00.183Z,0.50
2023-04-12T22:20:29.433Z,0.50
2023-04-12T22:22:57.565Z,0.57
2023-04-12T22:25:25.943Z,0.80
2023-04-12T22:27:57.742Z,0.63
2023-04-12T22:30:25.950Z,0.55
2023-04-12T22:32:53.851Z,0.80
2023-04-12T22:35:24.964Z,0.50
2023-04-12T22:37:54.140Z,0.55
2023-04-12T22:40:21.903Z,0.80
2023-04-12T22:42:49.676Z,0.70
2023-04-12T22:45:18.536Z,0.65
2023-04-12T22:47:46.608Z,0.55
2023-04-12T22:50:15.013Z,0.60
2023-04-12T22:52:43.033Z,0.68
2023-04-12T22:55:13.902Z,0.70
2023-04-12T22:57:42.251Z,0.70
2023-04-12T23:00:15.758Z,0.50
2023-04-12T23:02:44.993Z,0.80
2023-04-12T23:05:13.932Z,0.60
2023-04-12T23:07:43.615Z,0.60
2023-04-12T23:10:13.250Z,0.60
2023-04-12T23:12:41.028Z,0.77
2023-04-12T23:15:10.193Z,0.60
2023-04-12T23:17:37.927Z,0.60
2023-04-12T23:20:09.960Z,0.63
2023-04-12T23:22:56.496Z,0.70
2023-04-12T23:25:38.915Z,0.60
2023-04-12T23:28:09.715Z,0.60
2023-04-12T23:30:37.582Z,0.60
2023-04-12T23:33:05.424Z,0.82
2023-04-12T23:35:36.881Z,0.90
2023-04-12T23:38:05.536Z,0.70
2023-04-12T23:40:34.654Z,0.57
2023-04-12T23:43:02.576Z,0.70
2023-04-12T23:45:30.290Z,0.65
2023-04-12T23:47:58.060Z,0.50
2023-04-12T23:50:25.824Z,0.60
2023-04-12T23:52:53.583Z,0.50
2023-04-12T23:55:21.796Z,0.50
2023-04-12T23:57:50.913Z,0.80
